sensor_id;sensor_type;location;lat;lon;timestamp;noise_LAeq;noise_LA_min;noise_LA_max;noise_LA01;noise_LA95
11999;Laerm;40817;51.520;9.954;2023-07-30T00:01:39;43.03;38.95;46.76;;
11999;Laerm;40817;51.520;9.954;2023-07-30T00:04:07;43.29;38.21;46.64;;
11999;Laerm;40817;51.520;9.954;2023-07-30T00:06:34;42.79;36.45;57.82;;
11999;Laerm;40817;51.520;9.954;2023-07-30T00:09:03;43.08;37.52;46.38;;
11999;Laerm;40817;51.520;9.954;2023-07-30T00:11:31;42.99;38.21;44.97;;
11999;Laerm;40817;51.520;9.954;2023-07-30T00:13:59;42.91;37.12;45.51;;
11999;Laerm;40817;51.520;9.954;2023-07-30T00:16:26;42.78;36.20;45.07;;
11999;Laerm;40817;51.520;9.954;2023-07-30T00:18:54;43.14;38.32;45.04;;
11999;Laerm;40817;51.520;9.954;2023-07-30T00:21:23;44.35;39.21;48.73;;
11999;Laerm;40817;51.520;9.954;2023-07-30T00:23:50;42.95;36.20;45.17;;
11999;Laerm;40817;51.520;9.954;2023-07-30T00:26:19;43.37;36.45;55.14;;
11999;Laerm;40817;51.520;9.954;2023-07-30T00:28:47;43.95;35.36;67.77;;
11999;Laerm;40817;51.520;9.954;2023-07-30T00:31:14;43.91;38.52;58.76;;
11999;Laerm;40817;51.520;9.954;2023-07-30T00:33:42;44.15;39.08;50.37;;
11999;Laerm;40817;51.520;9.954;2023-07-30T00:36:09;43.08;38.52;45.57;;
11999;Laerm;40817;51.520;9.954;2023-07-30T00:38:36;43.07;35.36;44.94;;
11999;Laerm;40817;51.520;9.954;2023-07-30T00:41:04;43.63;35.36;46.13;;
11999;Laerm;40817;51.520;9.954;2023-07-30T00:43:33;43.61;37.12;45.54;;
11999;Laerm;40817;51.520;9.954;2023-07-30T00:46:00;44.13;40.62;49.57;;
11999;Laerm;40817;51.520;9.954;2023-07-30T00:48:28;43.25;37.88;45.11;;
11999;Laerm;40817;51.520;9.954;2023-07-30T00:50:56;43.19;36.91;45.23;;
11999;Laerm;40817;51.520;9.954;2023-07-30T00:53:25;44.08;34.31;56.34;;
11999;Laerm;40817;51.520;9.954;2023-07-30T00:55:53;43.46;37.88;45.45;;
11999;Laerm;40817;51.520;9.954;2023-07-30T00:58:21;43.11;36.20;45.11;;
11999;Laerm;40817;51.520;9.954;2023-07-30T01:00:51;44.17;39.92;49.17;;
11999;Laerm;40817;51.520;9.954;2023-07-30T01:03:20;44.02;40.80;45.72;;
11999;Laerm;40817;51.520;9.954;2023-07-30T01:05:48;43.87;40.33;51.03;;
11999;Laerm;40817;51.520;9.954;2023-07-30T01:08:15;43.69;40.71;49.84;;
11999;Laerm;40817;51.520;9.954;2023-07-30T01:10:43;43.72;38.95;54.65;;
11999;Laerm;40817;51.520;9.954;2023-07-30T01:13:12;44.32;40.53;58.46;;
11999;Laerm;40817;51.520;9.954;2023-07-30T01:15:41;44.32;41.30;47.88;;
11999;Laerm;40817;51.520;9.954;2023-07-30T01:18:11;44.06;39.70;46.43;;
11999;Laerm;40817;51.520;9.954;2023-07-30T01:20:39;44.37;37.88;49.66;;
11999;Laerm;40817;51.520;9.954;2023-07-30T01:23:08;43.75;40.13;45.89;;
11999;Laerm;40817;51.520;9.954;2023-07-30T01:25:37;43.13;38.95;45.11;;
11999;Laerm;40817;51.520;9.954;2023-07-30T01:28:08;42.99;36.20;64.10;;
11999;Laerm;40817;51.520;9.954;2023-07-30T01:30:41;43.11;36.91;45.11;;
11999;Laerm;40817;51.520;9.954;2023-07-30T01:33:11;43.03;35.94;50.12;;
11999;Laerm;40817;51.520;9.954;2023-07-30T01:35:39;43.28;37.70;46.35;;
11999;Laerm;40817;51.520;9.954;2023-07-30T01:38:10;42.98;35.04;46.33;;
11999;Laerm;40817;51.520;9.954;2023-07-30T01:40:38;44.06;39.92;47.24;;
11999;Laerm;40817;51.520;9.954;2023-07-30T01:43:07;42.46;38.52;45.36;;
11999;Laerm;40817;51.520;9.954;2023-07-30T01:45:35;43.02;38.05;45.36;;
11999;Laerm;40817;51.520;9.954;2023-07-30T01:48:03;42.88;36.20;45.01;;
11999;Laerm;40817;51.520;9.954;2023-07-30T01:50:30;42.85;38.52;49.66;;
11999;Laerm;40817;51.520;9.954;2023-07-30T01:52:58;41.96;34.69;46.73;;
11999;Laerm;40817;51.520;9.954;2023-07-30T01:55:27;42.23;37.70;44.51;;
11999;Laerm;40817;51.520;9.954;2023-07-30T01:57:54;42.44;38.21;44.54;;
11999;Laerm;40817;51.520;9.954;2023-07-30T02:00:21;42.39;38.37;44.43;;
11999;Laerm;40817;51.520;9.954;2023-07-30T02:02:54;42.30;38.05;44.27;;
11999;Laerm;40817;51.520;9.954;2023-07-30T02:05:21;42.86;37.32;44.87;;
11999;Laerm;40817;51.520;9.954;2023-07-30T02:07:49;42.91;38.67;45.94;;
11999;Laerm;40817;51.520;9.954;2023-07-30T02:10:16;43.05;35.04;47.18;;
11999;Laerm;40817;51.520;9.954;2023-07-30T02:12:45;43.69;38.81;49.51;;
11999;Laerm;40817;51.520;9.954;2023-07-30T02:15:12;43.38;39.46;46.66;;
11999;Laerm;40817;51.520;9.954;2023-07-30T02:17:40;42.77;39.08;45.39;;
11999;Laerm;40817;51.520;9.954;2023-07-30T02:20:09;42.90;39.34;45.54;;
11999;Laerm;40817;51.520;9.954;2023-07-30T02:22:36;43.37;39.21;45.48;;
11999;Laerm;40817;51.520;9.954;2023-07-30T02:25:05;42.97;38.95;45.36;;
11999;Laerm;40817;51.520;9.954;2023-07-30T02:27:35;43.12;39.21;56.55;;
11999;Laerm;40817;51.520;9.954;2023-07-30T02:30:06;43.09;38.67;51.40;;
11999;Laerm;40817;51.520;9.954;2023-07-30T02:32:35;43.22;39.58;44.94;;
11999;Laerm;40817;51.520;9.954;2023-07-30T02:35:04;43.11;38.52;45.75;;
11999;Laerm;40817;51.520;9.954;2023-07-30T02:37:32;43.66;39.58;64.00;;
11999;Laerm;40817;51.520;9.954;2023-07-30T02:40:00;42.96;39.08;45.51;;
11999;Laerm;40817;51.520;9.954;2023-07-30T02:42:31;42.39;38.05;46.80;;
11999;Laerm;40817;51.520;9.954;2023-07-30T02:44:58;42.30;38.52;44.54;;
11999;Laerm;40817;51.520;9.954;2023-07-30T02:47:27;42.56;38.81;48.40;;
11999;Laerm;40817;51.520;9.954;2023-07-30T02:49:55;42.44;38.95;44.73;;
11999;Laerm;40817;51.520;9.954;2023-07-30T02:52:22;43.17;37.52;45.17;;
11999;Laerm;40817;51.520;9.954;2023-07-30T02:54:50;43.37;39.81;45.30;;
11999;Laerm;40817;51.520;9.954;2023-07-30T02:57:18;43.19;36.91;45.01;;
11999;Laerm;40817;51.520;9.954;2023-07-30T02:59:45;43.78;36.20;47.91;;
11999;Laerm;40817;51.520;9.954;2023-07-30T03:02:13;43.69;40.23;53.81;;
11999;Laerm;40817;51.520;9.954;2023-07-30T03:04:44;44.22;40.13;64.37;;
11999;Laerm;40817;51.520;9.954;2023-07-30T03:07:13;43.17;39.70;45.14;;
11999;Laerm;40817;51.520;9.954;2023-07-30T03:09:40;43.51;40.03;45.89;;
11999;Laerm;40817;51.520;9.954;2023-07-30T03:12:08;43.42;38.95;45.14;;
11999;Laerm;40817;51.520;9.954;2023-07-30T03:14:36;43.78;39.81;45.36;;
11999;Laerm;40817;51.520;9.954;2023-07-30T03:17:04;43.16;39.34;45.17;;
11999;Laerm;40817;51.520;9.954;2023-07-30T03:19:32;43.18;39.58;45.33;;
11999;Laerm;40817;51.520;9.954;2023-07-30T03:22:00;43.29;39.58;44.97;;
11999;Laerm;40817;51.520;9.954;2023-07-30T03:24:28;43.27;40.03;45.42;;
11999;Laerm;40817;51.520;9.954;2023-07-30T03:26:55;43.80;39.46;57.30;;
11999;Laerm;40817;51.520;9.954;2023-07-30T03:29:23;42.65;38.21;44.76;;
11999;Laerm;40817;51.520;9.954;2023-07-30T03:31:51;44.57;39.34;65.02;;
11999;Laerm;40817;51.520;9.954;2023-07-30T03:34:18;43.40;40.23;53.90;;
11999;Laerm;40817;51.520;9.954;2023-07-30T03:36:46;42.51;38.67;49.97;;
11999;Laerm;40817;51.520;9.954;2023-07-30T03:39:15;42.75;38.67;44.73;;
11999;Laerm;40817;51.520;9.954;2023-07-30T03:41:43;42.69;38.95;44.65;;
11999;Laerm;40817;51.520;9.954;2023-07-30T03:44:10;42.74;38.95;54.76;;
11999;Laerm;40817;51.520;9.954;2023-07-30T03:46:38;42.88;39.58;47.50;;
11999;Laerm;40817;51.520;9.954;2023-07-30T03:49:06;42.87;39.34;44.83;;
11999;Laerm;40817;51.520;9.954;2023-07-30T03:51:33;42.80;39.08;44.94;;
11999;Laerm;40817;51.520;9.954;2023-07-30T03:54:01;42.98;38.95;62.63;;
11999;Laerm;40817;51.520;9.954;2023-07-30T03:56:30;43.10;39.21;48.10;;
11999;Laerm;40817;51.520;9.954;2023-07-30T03:58:58;42.87;39.08;48.37;;
11999;Laerm;40817;51.520;9.954;2023-07-30T04:01:25;43.05;39.21;52.58;;
11999;Laerm;40817;51.520;9.954;2023-07-30T04:03:55;43.97;40.13;51.94;;
11999;Laerm;40817;51.520;9.954;2023-07-30T04:06:22;43.11;39.81;47.98;;
11999;Laerm;40817;51.520;9.954;2023-07-30T04:08:50;43.18;39.92;45.69;;
11999;Laerm;40817;51.520;9.954;2023-07-30T04:11:17;42.99;39.21;45.04;;
11999;Laerm;40817;51.520;9.954;2023-07-30T04:13:46;43.19;40.13;51.79;;
11999;Laerm;40817;51.520;9.954;2023-07-30T04:16:14;43.88;40.89;57.27;;
11999;Laerm;40817;51.520;9.954;2023-07-30T04:18:41;43.45;40.71;55.28;;
11999;Laerm;40817;51.520;9.954;2023-07-30T04:21:09;43.72;40.33;48.90;;
11999;Laerm;40817;51.520;9.954;2023-07-30T04:23:36;44.03;41.06;49.65;;
11999;Laerm;40817;51.520;9.954;2023-07-30T04:26:04;43.60;40.53;45.33;;
11999;Laerm;40817;51.520;9.954;2023-07-30T04:28:33;43.84;40.89;47.52;;
11999;Laerm;40817;51.520;9.954;2023-07-30T04:31:01;43.49;40.53;48.18;;
11999;Laerm;40817;51.520;9.954;2023-07-30T04:33:29;43.36;38.21;58.17;;
11999;Laerm;40817;51.520;9.954;2023-07-30T04:35:56;43.10;39.92;51.91;;
11999;Laerm;40817;51.520;9.954;2023-07-30T04:38:24;43.48;39.70;56.96;;
11999;Laerm;40817;51.520;9.954;2023-07-30T04:40:52;43.54;40.80;47.36;;
11999;Laerm;40817;51.520;9.954;2023-07-30T04:43:19;43.85;41.30;47.54;;
11999;Laerm;40817;51.520;9.954;2023-07-30T04:45:47;43.22;39.78;50.63;;
11999;Laerm;40817;51.520;9.954;2023-07-30T04:48:16;43.40;40.43;45.07;;
11999;Laerm;40817;51.520;9.954;2023-07-30T04:50:43;43.11;40.03;45.23;;
11999;Laerm;40817;51.520;9.954;2023-07-30T04:53:11;43.26;40.13;46.23;;
11999;Laerm;40817;51.520;9.954;2023-07-30T04:55:39;43.81;40.53;49.72;;
11999;Laerm;40817;51.520;9.954;2023-07-30T04:58:06;43.35;40.13;46.48;;
11999;Laerm;40817;51.520;9.954;2023-07-30T05:00:34;43.33;40.33;45.30;;
11999;Laerm;40817;51.520;9.954;2023-07-30T05:03:01;43.11;38.52;52.01;;
11999;Laerm;40817;51.520;9.954;2023-07-30T05:05:30;43.52;39.92;46.71;;
11999;Laerm;40817;51.520;9.954;2023-07-30T05:07:58;43.53;40.13;53.68;;
11999;Laerm;40817;51.520;9.954;2023-07-30T05:10:25;43.19;40.23;45.63;;
11999;Laerm;40817;51.520;9.954;2023-07-30T05:12:53;43.22;39.81;46.69;;
11999;Laerm;40817;51.520;9.954;2023-07-30T05:15:20;43.20;39.34;47.26;;
11999;Laerm;40817;51.520;9.954;2023-07-30T05:17:48;43.15;39.58;54.76;;
11999;Laerm;40817;51.520;9.954;2023-07-30T05:20:15;43.15;39.08;44.87;;
11999;Laerm;40817;51.520;9.954;2023-07-30T05:22:44;43.14;39.46;57.79;;
11999;Laerm;40817;51.520;9.954;2023-07-30T05:25:11;43.49;40.43;45.60;;
11999;Laerm;40817;51.520;9.954;2023-07-30T05:27:39;43.72;39.81;47.26;;
11999;Laerm;40817;51.520;9.954;2023-07-30T05:30:08;43.67;40.62;46.05;;
11999;Laerm;40817;51.520;9.954;2023-07-30T05:32:35;43.66;41.14;45.89;;
11999;Laerm;40817;51.520;9.954;2023-07-30T05:35:04;43.39;40.62;45.36;;
11999;Laerm;40817;51.520;9.954;2023-07-30T05:37:32;43.57;40.43;53.71;;
11999;Laerm;40817;51.520;9.954;2023-07-30T05:40:01;43.58;40.33;45.48;;
11999;Laerm;40817;51.520;9.954;2023-07-30T05:42:29;43.22;39.70;45.20;;
11999;Laerm;40817;51.520;9.954;2023-07-30T05:44:57;43.40;40.13;47.00;;
11999;Laerm;40817;51.520;9.954;2023-07-30T05:47:24;43.05;39.58;45.66;;
11999;Laerm;40817;51.520;9.954;2023-07-30T05:49:52;43.87;40.23;54.63;;
11999;Laerm;40817;51.520;9.954;2023-07-30T05:52:19;43.77;39.81;53.22;;
11999;Laerm;40817;51.520;9.954;2023-07-30T05:54:48;43.01;39.11;45.20;;
11999;Laerm;40817;51.520;9.954;2023-07-30T05:57:17;43.44;39.58;45.75;;
11999;Laerm;40817;51.520;9.954;2023-07-30T05:59:44;44.70;39.08;66.90;;
11999;Laerm;40817;51.520;9.954;2023-07-30T06:02:13;42.22;37.52;45.25;;
11999;Laerm;40817;51.520;9.954;2023-07-30T06:04:40;42.77;38.37;44.94;;
11999;Laerm;40817;51.520;9.954;2023-07-30T06:07:08;42.54;37.88;45.11;;
11999;Laerm;40817;51.520;9.954;2023-07-30T06:09:35;43.35;38.52;51.40;;
11999;Laerm;40817;51.520;9.954;2023-07-30T06:12:03;42.43;38.21;45.14;;
11999;Laerm;40817;51.520;9.954;2023-07-30T06:14:32;42.84;38.37;48.03;;
11999;Laerm;40817;51.520;9.954;2023-07-30T06:17:00;42.50;38.37;46.78;;
11999;Laerm;40817;51.520;9.954;2023-07-30T06:19:28;42.85;38.81;45.07;;
11999;Laerm;40817;51.520;9.954;2023-07-30T06:21:55;41.50;36.20;44.31;;
11999;Laerm;40817;51.520;9.954;2023-07-30T06:24:22;42.03;36.91;45.27;;
11999;Laerm;40817;51.520;9.954;2023-07-30T06:26:50;43.33;40.03;47.14;;
11999;Laerm;40817;51.520;9.954;2023-07-30T06:29:17;41.75;37.52;44.23;;
11999;Laerm;40817;51.520;9.954;2023-07-30T06:31:46;41.26;36.91;44.94;;
11999;Laerm;40817;51.520;9.954;2023-07-30T06:34:13;41.44;35.66;45.07;;
11999;Laerm;40817;51.520;9.954;2023-07-30T06:36:41;42.28;37.32;45.27;;
11999;Laerm;40817;51.520;9.954;2023-07-30T06:39:08;42.28;37.70;45.01;;
11999;Laerm;40817;51.520;9.954;2023-07-30T06:41:36;41.98;37.70;56.51;;
11999;Laerm;40817;51.520;9.954;2023-07-30T06:44:03;43.34;37.88;50.87;;
11999;Laerm;40817;51.520;9.954;2023-07-30T06:46:31;41.61;37.12;56.11;;
11999;Laerm;40817;51.520;9.954;2023-07-30T06:48:59;42.16;36.20;55.77;;
11999;Laerm;40817;51.520;9.954;2023-07-30T06:51:27;42.24;38.52;45.91;;
11999;Laerm;40817;51.520;9.954;2023-07-30T06:53:55;41.50;37.88;44.07;;
11999;Laerm;40817;51.520;9.954;2023-07-30T06:56:23;41.60;37.52;52.13;;
11999;Laerm;40817;51.520;9.954;2023-07-30T06:58:50;41.42;38.05;47.14;;
11999;Laerm;40817;51.520;9.954;2023-07-30T07:01:18;46.49;38.37;57.08;;
11999;Laerm;40817;51.520;9.954;2023-07-30T07:03:45;46.48;41.46;54.89;;
11999;Laerm;40817;51.520;9.954;2023-07-30T07:06:14;46.41;39.34;73.95;;
11999;Laerm;40817;51.520;9.954;2023-07-30T07:08:42;42.47;38.95;46.48;;
11999;Laerm;40817;51.520;9.954;2023-07-30T07:11:09;42.57;38.05;45.17;;
11999;Laerm;40817;51.520;9.954;2023-07-30T07:13:37;42.49;38.81;45.45;;
11999;Laerm;40817;51.520;9.954;2023-07-30T07:16:04;42.97;38.95;48.00;;
11999;Laerm;40817;51.520;9.954;2023-07-30T07:18:32;42.10;37.88;45.80;;
11999;Laerm;40817;51.520;9.954;2023-07-30T07:20:59;41.85;38.21;44.19;;
11999;Laerm;40817;51.520;9.954;2023-07-30T07:23:28;42.07;38.37;53.45;;
11999;Laerm;40817;51.520;9.954;2023-07-30T07:25:56;42.47;38.95;50.42;;
11999;Laerm;40817;51.520;9.954;2023-07-30T07:28:24;42.47;38.81;59.49;;
11999;Laerm;40817;51.520;9.954;2023-07-30T07:30:51;49.35;39.70;69.15;;
11999;Laerm;40817;51.520;9.954;2023-07-30T07:33:19;46.15;38.81;59.76;;
11999;Laerm;40817;51.520;9.954;2023-07-30T07:35:46;43.02;39.08;52.54;;
11999;Laerm;40817;51.520;9.954;2023-07-30T07:38:14;42.61;38.37;46.23;;
11999;Laerm;40817;51.520;9.954;2023-07-30T07:40:44;42.93;39.46;52.56;;
11999;Laerm;40817;51.520;9.954;2023-07-30T07:43:11;43.57;39.70;51.59;;
11999;Laerm;40817;51.520;9.954;2023-07-30T07:45:39;42.89;39.34;46.18;;
11999;Laerm;40817;51.520;9.954;2023-07-30T07:48:07;43.27;38.37;59.00;;
11999;Laerm;40817;51.520;9.954;2023-07-30T07:50:34;43.70;40.23;48.81;;
11999;Laerm;40817;51.520;9.954;2023-07-30T07:53:02;44.05;41.68;48.80;;
11999;Laerm;40817;51.520;9.954;2023-07-30T07:55:29;48.18;41.68;60.62;;
11999;Laerm;40817;51.520;9.954;2023-07-30T07:57:58;52.56;44.31;63.06;;
11999;Laerm;40817;51.520;9.954;2023-07-30T08:00:26;47.82;40.03;62.00;;
11999;Laerm;40817;51.520;9.954;2023-07-30T08:02:53;49.55;39.21;77.31;;
11999;Laerm;40817;51.520;9.954;2023-07-30T08:05:21;42.63;39.21;52.02;;
11999;Laerm;40817;51.520;9.954;2023-07-30T08:07:50;42.57;38.81;45.45;;
11999;Laerm;40817;51.520;9.954;2023-07-30T08:10:18;41.95;38.37;48.85;;
11999;Laerm;40817;51.520;9.954;2023-07-30T08:12:45;43.36;39.70;53.89;;
11999;Laerm;40817;51.520;9.954;2023-07-30T08:15:16;43.83;40.03;51.67;;
11999;Laerm;40817;51.520;9.954;2023-07-30T08:17:43;42.75;39.08;45.30;;
11999;Laerm;40817;51.520;9.954;2023-07-30T08:20:11;42.71;39.34;48.34;;
11999;Laerm;40817;51.520;9.954;2023-07-30T08:22:39;43.14;39.70;56.78;;
11999;Laerm;40817;51.520;9.954;2023-07-30T08:25:07;42.52;38.05;45.11;;
11999;Laerm;40817;51.520;9.954;2023-07-30T08:27:35;43.75;38.81;61.37;;
11999;Laerm;40817;51.520;9.954;2023-07-30T08:30:03;42.92;39.58;51.47;;
11999;Laerm;40817;51.520;9.954;2023-07-30T08:32:33;43.10;40.03;45.60;;
11999;Laerm;40817;51.520;9.954;2023-07-30T08:35:00;42.97;39.08;59.42;;
11999;Laerm;40817;51.520;9.954;2023-07-30T08:37:29;42.58;38.21;50.06;;
11999;Laerm;40817;51.520;9.954;2023-07-30T08:39:56;42.91;39.21;48.70;;
11999;Laerm;40817;51.520;9.954;2023-07-30T08:42:24;42.93;38.52;46.10;;
11999;Laerm;40817;51.520;9.954;2023-07-30T08:44:52;43.08;40.03;49.45;;
11999;Laerm;40817;51.520;9.954;2023-07-30T08:47:19;43.10;39.92;47.74;;
11999;Laerm;40817;51.520;9.954;2023-07-30T08:49:48;43.35;40.23;47.34;;
11999;Laerm;40817;51.520;9.954;2023-07-30T08:52:17;43.53;38.95;51.06;;
11999;Laerm;40817;51.520;9.954;2023-07-30T08:54:49;43.51;40.33;57.81;;
11999;Laerm;40817;51.520;9.954;2023-07-30T08:57:18;42.81;39.21;46.05;;
11999;Laerm;40817;51.520;9.954;2023-07-30T08:59:52;47.70;39.81;65.69;;
11999;Laerm;40817;51.520;9.954;2023-07-30T09:02:34;47.11;39.70;56.25;;
11999;Laerm;40817;51.520;9.954;2023-07-30T09:05:07;46.94;42.22;54.71;;
11999;Laerm;40817;51.520;9.954;2023-07-30T09:07:35;44.05;39.34;54.63;;
11999;Laerm;40817;51.520;9.954;2023-07-30T09:10:03;43.25;39.81;45.69;;
11999;Laerm;40817;51.520;9.954;2023-07-30T09:12:31;43.14;38.67;50.12;;
11999;Laerm;40817;51.520;9.954;2023-07-30T09:14:59;44.98;39.70;62.77;;
11999;Laerm;40817;51.520;9.954;2023-07-30T09:17:27;42.81;39.92;47.95;;
11999;Laerm;40817;51.520;9.954;2023-07-30T09:19:54;42.82;39.34;53.37;;
11999;Laerm;40817;51.520;9.954;2023-07-30T09:22:26;43.43;39.70;47.32;;
11999;Laerm;40817;51.520;9.954;2023-07-30T09:24:55;44.08;39.70;68.10;;
11999;Laerm;40817;51.520;9.954;2023-07-30T09:27:25;43.06;39.70;46.02;;
11999;Laerm;40817;51.520;9.954;2023-07-30T09:29:55;43.11;38.95;50.92;;
11999;Laerm;40817;51.520;9.954;2023-07-30T09:32:27;44.10;39.58;49.20;;
11999;Laerm;40817;51.520;9.954;2023-07-30T09:34:54;43.14;40.62;45.07;;
11999;Laerm;40817;51.520;9.954;2023-07-30T09:37:22;43.42;39.46;47.68;;
11999;Laerm;40817;51.520;9.954;2023-07-30T09:39:51;46.29;39.81;66.98;;
11999;Laerm;40817;51.520;9.954;2023-07-30T09:42:27;43.02;39.21;49.66;;
11999;Laerm;40817;51.520;9.954;2023-07-30T09:44:58;44.70;40.53;57.00;;
11999;Laerm;40817;51.520;9.954;2023-07-30T09:47:27;58.43;41.61;74.00;;
11999;Laerm;40817;51.520;9.954;2023-07-30T09:49:57;43.42;40.03;46.40;;
11999;Laerm;40817;51.520;9.954;2023-07-30T09:52:24;43.58;39.58;57.19;;
11999;Laerm;40817;51.520;9.954;2023-07-30T09:54:53;43.68;40.98;57.27;;
11999;Laerm;40817;51.520;9.954;2023-07-30T09:57:22;43.20;40.53;47.18;;
11999;Laerm;40817;51.520;9.954;2023-07-30T09:59:49;46.30;39.70;58.83;;
11999;Laerm;40817;51.520;9.954;2023-07-30T10:02:18;51.16;42.47;62.33;;
11999;Laerm;40817;51.520;9.954;2023-07-30T10:04:49;44.09;40.71;60.43;;
11999;Laerm;40817;51.520;9.954;2023-07-30T10:07:21;43.70;41.30;55.15;;
11999;Laerm;40817;51.520;9.954;2023-07-30T10:09:55;44.33;40.62;65.28;;
11999;Laerm;40817;51.520;9.954;2023-07-30T10:12:29;47.70;41.30;69.65;;
11999;Laerm;40817;51.520;9.954;2023-07-30T10:14:58;44.22;40.62;63.73;;
11999;Laerm;40817;51.520;9.954;2023-07-30T10:17:26;43.52;40.23;59.18;;
11999;Laerm;40817;51.520;9.954;2023-07-30T10:19:54;44.19;41.53;56.92;;
11999;Laerm;40817;51.520;9.954;2023-07-30T10:22:24;44.60;41.68;66.52;;
11999;Laerm;40817;51.520;9.954;2023-07-30T10:25:12;45.18;41.38;64.28;;
11999;Laerm;40817;51.520;9.954;2023-07-30T10:27:41;46.06;41.53;68.43;;
11999;Laerm;40817;51.520;9.954;2023-07-30T10:30:14;51.99;41.61;74.53;;
11999;Laerm;40817;51.520;9.954;2023-07-30T10:32:59;57.29;41.75;76.05;;
11999;Laerm;40817;51.520;9.954;2023-07-30T10:35:42;53.29;40.89;75.79;;
11999;Laerm;40817;51.520;9.954;2023-07-30T10:38:18;51.47;40.98;75.54;;
11999;Laerm;40817;51.520;9.954;2023-07-30T10:41:07;53.45;40.89;77.06;;
11999;Laerm;40817;51.520;9.954;2023-07-30T10:43:37;54.19;41.96;77.83;;
11999;Laerm;40817;51.520;9.954;2023-07-30T10:46:06;54.10;42.03;78.01;;
11999;Laerm;40817;51.520;9.954;2023-07-30T10:48:36;55.47;41.68;77.26;;
11999;Laerm;40817;51.520;9.954;2023-07-30T10:51:07;57.36;42.03;78.15;;
11999;Laerm;40817;51.520;9.954;2023-07-30T10:53:35;57.96;42.35;79.54;;
11999;Laerm;40817;51.520;9.954;2023-07-30T10:56:05;61.20;44.39;79.66;;
11999;Laerm;40817;51.520;9.954;2023-07-30T10:58:36;60.92;42.71;81.99;;
11999;Laerm;40817;51.520;9.954;2023-07-30T11:01:05;57.96;41.14;79.64;;
11999;Laerm;40817;51.520;9.954;2023-07-30T11:03:34;54.53;40.89;79.49;;
11999;Laerm;40817;51.520;9.954;2023-07-30T11:06:03;51.43;40.98;79.05;;
11999;Laerm;40817;51.520;9.954;2023-07-30T11:08:36;48.69;40.71;77.58;;
11999;Laerm;40817;51.520;9.954;2023-07-30T11:11:07;44.99;39.58;60.61;;
11999;Laerm;40817;51.520;9.954;2023-07-30T11:13:38;46.66;40.53;76.83;;
11999;Laerm;40817;51.520;9.954;2023-07-30T11:16:08;48.10;41.46;69.09;;
11999;Laerm;40817;51.520;9.954;2023-07-30T11:18:37;52.68;41.46;80.51;;
11999;Laerm;40817;51.520;9.954;2023-07-30T11:21:06;57.24;42.22;79.75;;
11999;Laerm;40817;51.520;9.954;2023-07-30T11:23:35;57.50;42.29;78.50;;
11999;Laerm;40817;51.520;9.954;2023-07-30T11:26:07;55.26;41.22;79.32;;
11999;Laerm;40817;51.520;9.954;2023-07-30T11:28:37;54.59;40.23;79.23;;
11999;Laerm;40817;51.520;9.954;2023-07-30T11:31:09;55.00;40.71;79.97;;
11999;Laerm;40817;51.520;9.954;2023-07-30T11:33:40;58.13;42.88;80.22;;
11999;Laerm;40817;51.520;9.954;2023-07-30T11:36:10;54.88;40.71;79.99;;
11999;Laerm;40817;51.520;9.954;2023-07-30T11:38:39;50.93;40.33;79.07;;
11999;Laerm;40817;51.520;9.954;2023-07-30T11:41:10;46.19;40.18;76.53;;
11999;Laerm;40817;51.520;9.954;2023-07-30T11:43:41;51.39;40.71;75.62;;
11999;Laerm;40817;51.520;9.954;2023-07-30T11:46:13;45.31;40.03;60.41;;
11999;Laerm;40817;51.520;9.954;2023-07-30T11:48:43;44.41;40.03;60.97;;
11999;Laerm;40817;51.520;9.954;2023-07-30T11:51:23;44.50;38.52;68.14;;
11999;Laerm;40817;51.520;9.954;2023-07-30T11:53:53;44.44;37.88;62.54;;
11999;Laerm;40817;51.520;9.954;2023-07-30T11:56:25;44.09;40.03;62.58;;
11999;Laerm;40817;51.520;9.954;2023-07-30T11:58:56;44.78;40.43;62.65;;
11999;Laerm;40817;51.520;9.954;2023-07-30T12:01:26;44.08;39.81;62.48;;
11999;Laerm;40817;51.520;9.954;2023-07-30T12:03:59;44.08;40.23;62.91;;
11999;Laerm;40817;51.520;9.954;2023-07-30T12:06:39;44.90;41.30;68.68;;
11999;Laerm;40817;51.520;9.954;2023-07-30T12:09:12;44.20;40.27;67.47;;
11999;Laerm;40817;51.520;9.954;2023-07-30T12:11:51;44.12;40.33;64.14;;
11999;Laerm;40817;51.520;9.954;2023-07-30T12:14:22;47.96;40.98;66.93;;
11999;Laerm;40817;51.520;9.954;2023-07-30T12:16:56;43.35;39.92;62.81;;
11999;Laerm;40817;51.520;9.954;2023-07-30T12:19:23;44.22;41.30;57.05;;
11999;Laerm;40817;51.520;9.954;2023-07-30T12:21:51;43.15;39.58;56.89;;
11999;Laerm;40817;51.520;9.954;2023-07-30T12:24:19;43.02;38.95;49.67;;
11999;Laerm;40817;51.520;9.954;2023-07-30T12:26:49;43.74;39.58;58.72;;
11999;Laerm;40817;51.520;9.954;2023-07-30T12:29:17;43.04;39.58;56.80;;
11999;Laerm;40817;51.520;9.954;2023-07-30T12:31:44;43.05;39.58;56.46;;
11999;Laerm;40817;51.520;9.954;2023-07-30T12:34:13;43.72;40.89;59.33;;
11999;Laerm;40817;51.520;9.954;2023-07-30T12:36:40;43.88;40.71;51.50;;
11999;Laerm;40817;51.520;9.954;2023-07-30T12:39:08;47.08;41.89;63.42;;
11999;Laerm;40817;51.520;9.954;2023-07-30T12:41:35;56.70;40.62;81.02;;
11999;Laerm;40817;51.520;9.954;2023-07-30T12:44:04;44.80;42.03;56.76;;
11999;Laerm;40817;51.520;9.954;2023-07-30T12:46:32;44.17;41.22;57.76;;
11999;Laerm;40817;51.520;9.954;2023-07-30T12:49:00;43.82;40.53;54.89;;
11999;Laerm;40817;51.520;9.954;2023-07-30T12:51:30;43.93;40.43;65.42;;
11999;Laerm;40817;51.520;9.954;2023-07-30T12:53:57;44.72;38.67;59.55;;
11999;Laerm;40817;51.520;9.954;2023-07-30T12:56:25;43.40;38.52;52.69;;
11999;Laerm;40817;51.520;9.954;2023-07-30T12:58:53;43.04;39.92;58.73;;
11999;Laerm;40817;51.520;9.954;2023-07-30T13:01:22;44.91;40.23;59.66;;
11999;Laerm;40817;51.520;9.954;2023-07-30T13:03:49;45.50;39.46;68.74;;
11999;Laerm;40817;51.520;9.954;2023-07-30T13:06:18;45.92;40.33;59.25;;
11999;Laerm;40817;51.520;9.954;2023-07-30T13:08:45;44.06;39.58;56.00;;
11999;Laerm;40817;51.520;9.954;2023-07-30T13:11:13;43.37;40.03;47.22;;
11999;Laerm;40817;51.520;9.954;2023-07-30T13:13:40;43.95;40.23;60.18;;
11999;Laerm;40817;51.520;9.954;2023-07-30T13:16:08;43.99;39.08;58.29;;
11999;Laerm;40817;51.520;9.954;2023-07-30T13:18:39;43.53;40.80;53.31;;
11999;Laerm;40817;51.520;9.954;2023-07-30T13:21:07;43.60;38.52;54.14;;
11999;Laerm;40817;51.520;9.954;2023-07-30T13:23:34;44.02;39.70;66.48;;
11999;Laerm;40817;51.520;9.954;2023-07-30T13:26:02;43.57;39.58;55.53;;
11999;Laerm;40817;51.520;9.954;2023-07-30T13:28:29;43.25;39.46;56.80;;
11999;Laerm;40817;51.520;9.954;2023-07-30T13:30:57;43.61;39.08;61.58;;
11999;Laerm;40817;51.520;9.954;2023-07-30T13:33:24;44.10;39.81;60.00;;
11999;Laerm;40817;51.520;9.954;2023-07-30T13:35:53;50.34;40.80;67.39;;
11999;Laerm;40817;51.520;9.954;2023-07-30T13:38:21;43.21;39.08;51.43;;
11999;Laerm;40817;51.520;9.954;2023-07-30T13:40:48;43.18;39.92;46.76;;
11999;Laerm;40817;51.520;9.954;2023-07-30T13:43:16;42.63;39.70;46.45;;
11999;Laerm;40817;51.520;9.954;2023-07-30T13:45:43;42.76;38.67;55.05;;
11999;Laerm;40817;51.520;9.954;2023-07-30T13:48:11;44.03;39.92;61.19;;
11999;Laerm;40817;51.520;9.954;2023-07-30T13:50:39;44.70;40.71;57.39;;
11999;Laerm;40817;51.520;9.954;2023-07-30T13:53:08;43.89;41.38;58.67;;